Time;durP1;ratioP1;P1;durP2;ratioP2;P2;SDS_P1;SDS_P2;PMS_P1;PMS_P2;Temp;Humidity;BMP_temperature;BMP_pressure;BME280_temperature;BME280_humidity;BME280_pressure;Samples;Min_cycle;Max_cycle;Signal;HPM_P1;HPM_P2
2022/12/18 00:01:56;;;;;;;2.70;2.40;;;;;;;22.86;36.46;100100.78;1915437;73;28093;-71
2022/12/18 00:04:44;;;;;;;3.65;2.22;;;;;;;22.90;36.46;100103.90;1919019;73;28120;-73
2022/12/18 00:07:33;;;;;;;2.87;2.37;;;;;;;22.86;36.51;100107.63;1901368;73;28149;-72
2022/12/18 00:10:21;;;;;;;4.53;2.37;;;;;;;22.90;36.47;100114.33;1906933;73;28194;-72
2022/12/18 00:13:10;;;;;;;2.45;2.22;;;;;;;22.92;36.46;100120.98;1900045;73;28200;-72
2022/12/18 00:16:03;;;;;;;2.50;2.20;;;;;;;22.96;36.42;100120.84;1919119;73;28164;-72
2022/12/18 00:18:55;;;;;;;4.22;2.20;;;;;;;23.00;36.39;100124.28;1923287;73;28123;-71
2022/12/18 00:21:45;;;;;;;2.47;2.17;;;;;;;22.98;36.46;100127.78;1901840;73;28156;-71
2022/12/18 00:24:35;;;;;;;2.62;2.40;;;;;;;23.00;36.39;100121.55;1915184;73;28104;-73
2022/12/18 00:27:23;;;;;;;2.87;2.47;;;;;;;23.00;36.44;100133.88;1901437;75;29221;-72
2022/12/18 00:30:12;;;;;;;2.72;2.08;;;;;;;23.02;36.44;100133.12;1922378;73;28216;-72
2022/12/18 00:33:00;;;;;;;2.60;2.40;;;;;;;23.03;36.35;100129.33;1901032;73;28024;-72
2022/12/18 00:35:49;;;;;;;2.80;2.30;;;;;;;23.04;36.40;100135.09;1891137;75;28886;-72
2022/12/18 00:38:38;;;;;;;2.27;2.17;;;;;;;22.98;36.46;100120.08;1900423;74;31132;-72
2022/12/18 00:44:33;;;;;;;3.12;2.17;;;;;;;23.06;36.40;100137.08;1824886;76;28186;-71
2022/12/18 00:47:21;;;;;;;3.70;2.20;;;;;;;23.05;36.41;100134.05;1832792;77;28371;-72
2022/12/18 00:50:11;;;;;;;2.50;2.30;;;;;;;23.03;36.45;100140.29;1842812;77;28375;-72
2022/12/18 00:52:59;;;;;;;3.60;2.02;;;;;;;23.09;36.41;100138.54;1818310;77;28786;-71
2022/12/18 00:55:48;;;;;;;2.23;2.10;;;;;;;23.09;36.33;100139.91;1843361;77;28193;-71
2022/12/18 00:58:36;;;;;;;3.00;2.10;;;;;;;23.11;36.30;100141.38;1854167;76;28400;-71
2022/12/18 01:01:25;;;;;;;2.65;2.17;;;;;;;23.13;36.34;100139.77;1820326;77;28356;-72
2022/12/18 01:04:14;;;;;;;4.22;2.05;;;;;;;23.16;36.34;100139.33;1835435;77;28135;-71
2022/12/18 01:07:04;;;;;;;2.45;2.00;;;;;;;23.17;36.32;100140.50;1829063;77;28200;-72
2022/12/18 01:09:52;;;;;;;3.05;2.25;;;;;;;23.16;36.32;100132.48;1834555;77;28381;-73
2022/12/18 01:12:41;;;;;;;3.15;2.10;;;;;;;23.18;36.31;100137.20;1832751;77;28277;-72
2022/12/18 01:15:31;;;;;;;2.47;2.10;;;;;;;23.19;36.25;100142.48;1825412;78;28436;-71
2022/12/18 01:18:20;;;;;;;3.80;2.20;;;;;;;23.22;36.29;100149.42;1828718;77;28309;-71
2022/12/18 01:21:11;;;;;;;2.98;2.20;;;;;;;23.14;36.35;100135.45;1831625;77;28225;-72
2022/12/18 01:24:00;;;;;;;4.70;2.10;;;;;;;23.19;36.36;100154.81;1835878;77;28275;-71
2022/12/18 01:26:48;;;;;;;2.27;2.12;;;;;;;23.22;36.33;100146.13;1816856;77;28273;-71
2022/12/18 01:29:37;;;;;;;2.85;2.00;;;;;;;23.19;36.33;100146.59;1831069;77;28412;-72
2022/12/18 01:32:25;;;;;;;2.00;1.80;;;;;;;23.21;36.35;100155.42;1842790;77;28269;-71
2022/12/18 01:35:13;;;;;;;2.30;2.10;;;;;;;23.23;36.33;100149.19;1841841;77;28342;-71
2022/12/18 01:38:02;;;;;;;2.05;1.95;;;;;;;23.23;36.38;100150.56;1869118;76;28202;-71
2022/12/18 01:40:52;;;;;;;3.08;2.05;;;;;;;23.25;36.33;100155.80;1853421;76;28229;-71
2022/12/18 01:43:46;;;;;;;2.27;2.10;;;;;;;23.26;36.39;100152.02;1837598;77;28328;-71
2022/12/18 01:46:34;;;;;;;2.25;2.08;;;;;;;23.26;36.37;100155.61;1831997;77;28176;-70
2022/12/18 01:49:22;;;;;;;2.12;1.95;;;;;;;23.27;36.34;100157.27;1844134;77;28383;-72
2022/12/18 01:52:10;;;;;;;2.22;2.00;;;;;;;23.27;36.36;100154.52;1829510;75;27877;-71
2022/12/18 01:55:01;;;;;;;2.47;2.08;;;;;;;23.29;36.32;100159.25;1852970;77;28342;-71
2022/12/18 01:57:56;;;;;;;2.05;1.95;;;;;;;23.30;36.27;100160.94;1853602;75;28195;-71
2022/12/18 02:00:44;;;;;;;3.52;2.10;;;;;;;23.30;36.29;100165.05;1852910;77;28235;-71
2022/12/18 02:03:33;;;;;;;2.25;2.00;;;;;;;23.31;36.24;100161.23;1858086;75;28378;-72
2022/12/18 02:06:30;;;;;;;2.30;2.10;;;;;;;23.32;36.23;100164.81;1866872;75;28121;-72
2022/12/18 02:09:21;;;;;;;2.10;2.00;;;;;;;23.32;36.23;100167.56;1866660;75;28383;-72
2022/12/18 02:12:23;;;;;;;2.67;1.90;;;;;;;23.34;36.28;100163.56;1871840;75;28203;-71
2022/12/18 02:15:18;;;;;;;2.72;1.90;;;;;;;23.35;36.28;100165.27;1852600;75;28240;-72
2022/12/18 02:18:28;;;;;;;2.35;2.10;;;;;;;23.35;36.25;100162.52;1852601;77;28199;-71
2022/12/18 02:21:37;;;;;;;3.63;2.20;;;;;;;23.38;36.29;100165.87;1837652;75;28268;-71
2022/12/18 02:24:36;;;;;;;1.98;1.87;;;;;;;23.38;36.30;100169.45;1796042;77;28400;-71
2022/12/18 02:27:25;;;;;;;2.15;2.05;;;;;;;23.36;36.35;100167.48;1857617;75;28188;-72
2022/12/18 02:30:16;;;;;;;2.00;1.90;;;;;;;23.38;36.30;100174.09;1852703;77;28191;-71
2022/12/18 02:33:07;;;;;;;2.00;1.80;;;;;;;23.38;36.28;100174.38;1854260;77;28143;-72
2022/12/18 02:35:58;;;;;;;4.90;1.72;;;;;;;23.39;36.37;100173.86;1852292;77;28246;-71
2022/12/18 02:38:48;;;;;;;2.00;1.90;;;;;;;23.44;36.29;100181.41;1872119;75;28312;-71
2022/12/18 02:41:38;;;;;;;2.25;2.15;;;;;;;23.44;36.29;100181.41;1856312;75;28215;-71
2022/12/18 02:44:27;;;;;;;2.90;1.98;;;;;;;23.48;36.24;100182.67;1869113;75;28205;-72
2022/12/18 02:47:18;;;;;;;2.05;1.85;;;;;;;23.45;36.19;100188.06;1854223;75;28345;-72
2022/12/18 02:50:18;;;;;;;1.80;1.70;;;;;;;23.45;36.22;100184.48;1853656;77;28202;-71
2022/12/18 02:53:17;;;;;;;2.52;1.90;;;;;;;23.46;36.25;100191.62;1856984;75;28247;-71
2022/12/18 02:56:14;;;;;;;2.17;1.80;;;;;;;23.48;36.17;100195.83;1854520;77;28274;-71
2022/12/18 02:59:08;;;;;;;2.02;1.92;;;;;;;23.47;36.19;100196.91;1863431;75;28209;-70
2022/12/18 03:02:01;;;;;;;1.72;1.62;;;;;;;23.48;36.19;100203.23;1863719;75;28223;-70
2022/12/18 03:04:52;;;;;;;2.20;1.80;;;;;;;23.47;36.19;100201.55;1862999;75;28294;-71
2022/12/18 03:07:45;;;;;;;2.00;1.80;;;;;;;23.48;36.22;100201.86;1859830;75;28212;-72
2022/12/18 03:10:37;;;;;;;2.30;2.10;;;;;;;23.46;36.23;100203.97;1868250;75;28342;-72
2022/12/18 03:13:28;;;;;;;2.00;1.90;;;;;;;23.52;36.16;100200.34;1853408;77;28239;-72
2022/12/18 03:16:21;;;;;;;2.75;2.00;;;;;;;23.50;36.17;100210.15;1867960;75;28203;-71
2022/12/18 03:19:16;;;;;;;2.13;1.80;;;;;;;23.52;36.18;100207.20;1852423;75;28238;-71
2022/12/18 03:22:07;;;;;;;1.92;1.82;;;;;;;23.54;36.14;100205.07;1860352;75;28133;-71
2022/12/18 03:24:59;;;;;;;1.67;1.57;;;;;;;23.53;36.12;100206.97;1844886;76;28276;-72
2022/12/18 03:27:51;;;;;;;1.90;1.80;;;;;;;23.54;36.12;100207.81;1846402;76;28273;-72
2022/12/18 03:30:43;;;;;;;2.02;1.90;;;;;;;23.54;36.15;100210.03;1823533;77;28207;-71
2022/12/18 03:33:34;;;;;;;1.80;1.70;;;;;;;23.54;36.13;100211.92;1849645;77;28262;-71
2022/12/18 03:36:24;;;;;;;1.87;1.77;;;;;;;23.52;36.15;100210.79;1834667;77;28372;-71
2022/12/18 03:39:14;;;;;;;1.80;1.70;;;;;;;23.52;36.16;100209.94;1910044;74;28160;-72
2022/12/18 03:42:10;;;;;;;2.90;2.00;;;;;;;23.56;36.11;100210.64;1899523;74;28166;-71
2022/12/18 03:45:09;;;;;;;1.75;1.65;;;;;;;23.55;36.11;100214.99;1877270;75;28309;-71
2022/12/18 03:48:05;;;;;;;1.92;1.60;;;;;;;23.55;36.09;100210.88;1904728;74;28169;-71
2022/12/18 03:51:01;;;;;;;1.90;1.80;;;;;;;23.56;36.10;100211.17;1902662;74;28139;-72
2022/12/18 03:53:56;;;;;;;1.80;1.70;;;;;;;23.55;36.11;100216.36;1904574;74;28224;-72
2022/12/18 03:56:52;;;;;;;1.80;1.70;;;;;;;23.56;36.12;100219.39;1899619;75;28186;-71
2022/12/18 03:59:44;;;;;;;1.67;1.62;;;;;;;23.54;36.16;100226.48;1898537;74;28156;-72
2022/12/18 04:02:37;;;;;;;1.85;1.75;;;;;;;23.55;36.19;100231.45;1901324;74;28542;-73
2022/12/18 04:05:29;;;;;;;1.77;1.67;;;;;;;23.56;36.15;100234.48;1898415;75;28383;-72
2022/12/18 04:08:20;;;;;;;1.70;1.60;;;;;;;23.55;36.14;100235.00;1904881;74;28202;-72
2022/12/18 04:11:11;;;;;;;2.00;1.80;;;;;;;23.56;36.15;100233.11;1924863;74;28133;-71
2022/12/18 04:14:00;;;;;;;1.73;1.63;;;;;;;23.60;36.09;100235.70;1924614;74;28091;-71
2022/12/18 04:16:49;;;;;;;1.70;1.60;;;;;;;23.62;36.07;100243.20;1909049;74;28129;-73
2022/12/18 04:19:39;;;;;;;1.90;1.70;;;;;;;23.61;36.07;100238.24;1898105;74;28148;-71
2022/12/18 04:22:29;;;;;;;1.72;1.62;;;;;;;23.62;36.04;100246.77;1868748;75;28173;-71
2022/12/18 04:25:18;;;;;;;1.90;1.70;;;;;;;23.63;36.05;100240.75;1900121;74;28190;-73
2022/12/18 04:28:18;;;;;;;2.00;1.80;;;;;;;23.61;36.06;100245.62;1881957;75;28022;-72
2022/12/18 04:31:06;;;;;;;1.67;1.45;;;;;;;23.60;36.06;100250.27;1899640;75;28141;-73
2022/12/18 04:33:55;;;;;;;1.75;1.65;;;;;;;23.63;36.04;100249.83;1922105;74;28085;-72
2022/12/18 04:36:44;;;;;;;1.90;1.80;;;;;;;23.63;36.03;100247.61;1909489;74;28106;-71
2022/12/18 04:39:35;;;;;;;1.70;1.60;;;;;;;23.63;36.03;100251.20;1904585;74;28104;-71
2022/12/18 04:42:25;;;;;;;1.50;1.50;;;;;;;23.65;35.99;100249.59;1899726;74;28167;-71
2022/12/18 04:45:13;;;;;;;1.80;1.70;;;;;;;23.63;36.02;100244.87;1900320;74;28093;-72
2022/12/18 04:48:03;;;;;;;1.70;1.60;;;;;;;23.63;36.07;100252.57;1902703;74;28348;-71
2022/12/18 04:50:52;;;;;;;1.90;1.80;;;;;;;23.66;36.03;100262.26;1894220;74;28079;-73
2022/12/18 04:53:40;;;;;;;1.70;1.60;;;;;;;23.68;35.97;100265.61;1892268;74;28205;-72
2022/12/18 04:56:30;;;;;;;1.62;1.52;;;;;;;23.68;35.92;100256.02;1901127;74;28032;-74
2022/12/18 04:59:18;;;;;;;1.75;1.65;;;;;;;23.68;35.92;100261.50;1896281;74;28193;-72
2022/12/18 05:02:07;;;;;;;1.57;1.50;;;;;;;23.66;36.01;100273.23;1895407;74;28142;-71
2022/12/18 05:04:59;;;;;;;2.00;1.90;;;;;;;23.66;35.94;100275.45;1906301;74;28237;-73
2022/12/18 05:07:48;;;;;;;1.80;1.70;;;;;;;23.64;35.98;100273.98;1893232;74;28239;-71
2022/12/18 05:10:36;;;;;;;1.60;1.50;;;;;;;23.63;36.00;100276.41;1909308;74;28285;-71
2022/12/18 05:13:25;;;;;;;1.75;1.65;;;;;;;23.67;35.96;100272.15;1895965;74;28092;-72
2022/12/18 05:16:14;;;;;;;2.05;1.50;;;;;;;23.65;35.98;100275.13;1897614;74;28045;-72
2022/12/18 05:19:02;;;;;;;1.30;1.30;;;;;;;23.68;35.97;100284.81;1908172;74;32587;-71
2022/12/18 05:21:51;;;;;;;1.40;1.37;;;;;;;23.66;36.00;100284.20;1907875;74;28021;-72
2022/12/18 05:24:39;;;;;;;1.50;1.40;;;;;;;23.68;35.91;100287.56;1887161;74;28181;-72
2022/12/18 05:27:27;;;;;;;1.52;1.50;;;;;;;23.67;35.97;100290.83;1889418;74;28168;-71
2022/12/18 05:30:17;;;;;;;1.60;1.50;;;;;;;23.67;35.91;100288.08;1891412;74;28101;-72
2022/12/18 05:33:05;;;;;;;1.30;1.30;;;;;;;23.67;35.96;100286.71;1889362;74;28111;-70
2022/12/18 05:35:56;;;;;;;1.50;1.45;;;;;;;23.65;36.05;100290.73;1887837;74;28665;-70
2022/12/18 05:38:44;;;;;;;1.60;1.50;;;;;;;23.65;35.99;100292.11;1891061;74;28151;-71
2022/12/18 05:41:32;;;;;;;1.70;1.60;;;;;;;23.65;35.95;100287.47;1890673;74;28124;-72
2022/12/18 05:44:20;;;;;;;1.60;1.50;;;;;;;23.64;35.93;100294.56;1891727;74;28040;-70
2022/12/18 05:47:10;;;;;;;1.73;1.40;;;;;;;23.62;36.01;100296.13;1895327;74;28004;-74
2022/12/18 05:49:59;;;;;;;1.30;1.30;;;;;;;23.61;36.10;100295.00;1898992;74;31036;-60
2022/12/18 05:52:47;;;;;;;1.40;1.30;;;;;;;23.64;36.11;100302.79;1888700;74;38403;-72
2022/12/18 05:55:37;;;;;;;1.60;1.50;;;;;;;23.58;36.12;100302.28;1903283;74;28190;-72
2022/12/18 05:58:26;;;;;;;1.57;1.47;;;;;;;23.56;36.15;100303.05;1895185;74;28162;-68
2022/12/18 06:01:20;;;;;;;1.60;1.50;;;;;;;23.56;36.20;100305.78;1898717;74;28121;-76
2022/12/18 06:04:09;;;;;;;1.60;1.50;;;;;;;23.57;36.19;100309.66;1907734;74;27994;-69
2022/12/18 06:06:58;;;;;;;1.60;1.50;;;;;;;23.59;36.13;100313.05;1887710;74;28278;-64
2022/12/18 06:09:46;;;;;;;1.30;1.30;;;;;;;23.58;36.14;100317.38;1886587;74;28126;-68
2022/12/18 06:12:34;;;;;;;1.62;1.52;;;;;;;23.58;36.18;100320.11;1889838;74;28219;-64
2022/12/18 06:15:23;;;;;;;1.55;1.42;;;;;;;23.58;36.14;100322.86;1894323;74;28177;-63
2022/12/18 06:18:12;;;;;;;1.45;1.35;;;;;;;23.59;36.16;100324.55;1853243;76;28104;-63
2022/12/18 06:21:01;;;;;;;1.55;1.45;;;;;;;23.59;36.17;100328.66;1910178;74;28067;-64
2022/12/18 06:23:50;;;;;;;1.60;1.50;;;;;;;23.60;36.10;100339.92;1901352;74;28140;-66
2022/12/18 06:26:40;;;;;;;1.47;1.40;;;;;;;23.60;36.09;100339.92;1889023;74;28108;-69
2022/12/18 06:29:28;;;;;;;1.40;1.30;;;;;;;23.63;35.98;100349.09;1840896;76;28240;-68
2022/12/18 06:32:17;;;;;;;1.40;1.30;;;;;;;23.63;36.02;100344.98;1905682;74;28084;-69
2022/12/18 06:35:06;;;;;;;1.55;1.45;;;;;;;23.64;35.99;100352.98;1900244;74;28169;-64
2022/12/18 06:37:54;;;;;;;1.37;1.37;;;;;;;23.68;35.91;100356.13;1903998;74;28220;-64
2022/12/18 06:40:42;;;;;;;1.40;1.30;;;;;;;23.67;35.89;100357.19;1850861;75;28154;-65
2022/12/18 06:43:31;;;;;;;1.37;1.35;;;;;;;23.64;35.90;100362.58;1844904;77;28271;-66
2022/12/18 06:46:20;;;;;;;1.82;1.50;;;;;;;23.62;35.93;100363.33;1848040;77;28251;-64
2022/12/18 06:49:09;;;;;;;1.40;1.30;;;;;;;23.61;35.89;100360.82;1829181;77;28256;-64
2022/12/18 06:51:58;;;;;;;1.20;1.20;;;;;;;23.61;35.91;100373.16;1827839;77;28338;-65
2022/12/18 06:54:46;;;;;;;1.40;1.40;;;;;;;23.58;35.89;100375.81;1831925;77;28372;-65
2022/12/18 06:57:35;;;;;;;1.37;1.37;;;;;;;23.59;35.93;100380.25;1837111;76;28293;-63
2022/12/18 07:00:23;;;;;;;1.50;1.40;;;;;;;23.61;35.90;100383.61;1898109;74;33026;-63
2022/12/18 07:03:11;;;;;;;1.40;1.35;;;;;;;23.62;35.85;100388.57;1897054;74;28599;-64
2022/12/18 07:06:00;;;;;;;1.40;1.40;;;;;;;23.60;35.85;100391.52;1918505;73;28143;-64
2022/12/18 07:08:49;;;;;;;1.10;1.10;;;;;;;23.62;35.85;100404.48;1896857;74;28082;-64
2022/12/18 07:11:38;;;;;;;1.60;1.50;;;;;;;23.59;35.82;100412.31;1907017;73;28219;-64
2022/12/18 07:14:26;;;;;;;1.60;1.40;;;;;;;23.62;35.82;100418.74;1907905;73;28140;-62
2022/12/18 07:17:14;;;;;;;1.42;1.40;;;;;;;23.62;35.74;100422.86;1900397;74;28174;-63
2022/12/18 07:20:04;;;;;;;1.42;1.42;;;;;;;23.61;35.79;100419.27;1889049;74;28203;-63
2022/12/18 07:22:52;;;;;;;1.37;1.20;;;;;;;23.60;35.81;100422.20;1914886;73;28086;-63
2022/12/18 07:25:41;;;;;;;1.60;1.50;;;;;;;23.59;35.81;100426.03;1902534;74;28157;-63
2022/12/18 07:28:29;;;;;;;1.20;1.20;;;;;;;23.62;35.72;100425.05;1911319;73;28186;-64
2022/12/18 07:31:21;;;;;;;1.37;1.37;;;;;;;23.62;35.66;100429.16;1906909;74;28318;-63
2022/12/18 07:34:15;;;;;;;1.40;1.40;;;;;;;23.62;35.74;100435.20;1897958;74;28082;-65
2022/12/18 07:37:03;;;;;;;1.50;1.40;;;;;;;23.62;35.67;100437.95;1908882;73;28078;-64
2022/12/18 07:39:51;;;;;;;2.10;1.92;;;;;;;23.64;35.60;100427.03;1888790;75;28046;-65
2022/12/18 07:42:40;;;;;;;1.67;1.57;;;;;;;23.60;34.22;100432.66;1908663;73;28100;-65
2022/12/18 07:45:28;;;;;;;1.70;1.60;;;;;;;23.61;34.48;100431.61;1864365;76;28266;-64
2022/12/18 07:48:16;;;;;;;1.77;1.67;;;;;;;23.66;34.62;100438.66;1904111;73;28705;-65
2022/12/18 07:51:06;;;;;;;2.62;1.40;;;;;;;23.64;34.81;100437.19;1904116;73;28108;-67
2022/12/18 07:53:55;;;;;;;1.32;1.30;;;;;;;23.66;34.85;100442.77;1901528;73;28241;-62
2022/12/18 07:56:43;;;;;;;1.42;1.40;;;;;;;23.65;34.85;100439.70;1903551;73;28058;-63
2022/12/18 07:59:32;;;;;;;1.27;1.27;;;;;;;23.65;34.87;100441.08;1914296;73;28051;-63
2022/12/18 08:02:20;;;;;;;1.30;1.30;;;;;;;23.67;34.95;100443.59;1901194;73;28090;-63
2022/12/18 08:05:10;;;;;;;2.10;1.35;;;;;;;23.67;34.89;100449.08;1876890;75;28207;-65
2022/12/18 08:07:59;;;;;;;1.20;1.20;;;;;;;23.66;34.90;100457.02;1911433;73;28081;-64
2022/12/18 08:10:48;;;;;;;1.30;1.30;;;;;;;23.65;34.99;100452.05;1910591;73;28140;-63
2022/12/18 08:13:36;;;;;;;1.50;1.40;;;;;;;23.66;34.99;100452.38;1913950;73;28093;-63
2022/12/18 08:16:25;;;;;;;1.12;1.12;;;;;;;23.66;34.97;100442.77;1901220;73;28169;-65
2022/12/18 08:19:13;;;;;;;1.32;1.30;;;;;;;23.69;34.92;100444.20;1913333;73;28070;-64
2022/12/18 08:22:02;;;;;;;1.35;1.25;;;;;;;23.68;34.90;100442.02;1914547;73;28157;-66
2022/12/18 08:24:50;;;;;;;1.45;1.35;;;;;;;23.67;34.92;100446.33;1911144;73;28066;-66
2022/12/18 08:27:39;;;;;;;1.50;1.40;;;;;;;23.67;34.96;100452.66;1913297;73;28094;-64
2022/12/18 08:30:27;;;;;;;1.45;1.35;;;;;;;23.67;34.89;100447.70;1901106;75;28136;-64
2022/12/18 08:33:16;;;;;;;1.20;1.20;;;;;;;23.62;34.96;100445.62;1882787;75;28133;-64
2022/12/18 08:36:06;;;;;;;1.30;1.30;;;;;;;23.67;34.90;100444.96;1904354;73;28069;-63
2022/12/18 08:38:55;;;;;;;1.77;1.45;;;;;;;23.63;34.95;100442.35;1913262;73;28053;-63
2022/12/18 08:44:37;;;;;;;1.27;1.22;;;;;;;23.64;34.95;100445.42;1909643;73;28087;-63
2022/12/18 08:44:40;;;;;;;1.55;1.50;;;;;;;23.63;34.91;100445.09;1908918;73;28259;-70
2022/12/18 08:47:29;;;;;;;1.50;1.40;;;;;;;23.64;34.98;100444.05;1877253;75;28222;-70
2022/12/18 08:50:17;;;;;;;1.40;1.30;;;;;;;23.64;34.97;100442.12;1900642;73;28012;-68
2022/12/18 08:53:06;;;;;;;1.43;1.40;;;;;;;23.65;34.93;100439.70;1924729;73;28101;-67
2022/12/18 08:55:54;;;;;;;1.40;1.35;;;;;;;23.68;34.94;100437.05;1901152;75;28101;-68
2022/12/18 08:58:43;;;;;;;1.60;1.40;;;;;;;23.68;34.86;100431.57;1909679;73;28173;-68
2022/12/18 09:01:32;;;;;;;1.30;1.20;;;;;;;23.66;34.84;100430.43;1901126;75;28181;-67
2022/12/18 09:04:20;;;;;;;1.47;1.37;;;;;;;23.65;34.87;100430.11;1919815;73;28187;-68
2022/12/18 09:07:08;;;;;;;1.90;1.40;;;;;;;23.64;34.88;100428.97;1901756;73;28128;-69
2022/12/18 09:09:57;;;;;;;1.45;1.40;;;;;;;23.60;34.86;100412.61;1901039;75;28116;-67
2022/12/18 09:12:46;;;;;;;1.47;1.43;;;;;;;23.68;34.83;100424.19;1901804;73;28239;-69
2022/12/18 09:15:34;;;;;;;1.30;1.30;;;;;;;23.66;34.81;100427.69;1906984;73;33057;-68
2022/12/18 09:18:24;;;;;;;1.42;1.32;;;;;;;23.63;34.82;100424.00;1925638;73;28054;-67
2022/12/18 09:21:15;;;;;;;2.13;1.33;;;;;;;23.64;34.88;100421.55;1890139;74;28179;-66
2022/12/18 09:24:04;;;;;;;1.40;1.30;;;;;;;23.66;34.80;100424.09;1892780;75;28224;-67
2022/12/18 09:26:54;;;;;;;1.22;1.22;;;;;;;23.63;34.84;100430.01;1856273;75;28180;-68
2022/12/18 09:29:43;;;;;;;1.60;1.50;;;;;;;23.61;34.90;100425.27;1890043;75;28202;-67
2022/12/18 09:32:31;;;;;;;1.50;1.40;;;;;;;23.63;34.82;100427.27;1882672;75;28292;-69
2022/12/18 09:35:20;;;;;;;1.37;1.27;;;;;;;23.64;34.86;100427.59;1890360;75;28180;-70
2022/12/18 09:38:11;;;;;;;1.50;1.40;;;;;;;23.65;34.81;100425.98;1894775;75;28097;-68
2022/12/18 09:41:02;;;;;;;1.50;1.30;;;;;;;23.67;34.73;100434.84;1880254;75;28246;-67
2022/12/18 09:43:57;;;;;;;1.50;1.40;;;;;;;23.69;34.75;100428.59;1886721;74;28227;-69
2022/12/18 09:46:51;;;;;;;1.60;1.40;;;;;;;23.69;34.79;100418.15;1880660;75;28258;-66
2022/12/18 09:49:42;;;;;;;1.50;1.40;;;;;;;23.64;34.84;100424.30;1874163;75;28138;-66
2022/12/18 09:52:40;;;;;;;1.50;1.42;;;;;;;23.62;34.84;100430.53;1881669;75;28156;-69
2022/12/18 09:55:40;;;;;;;1.77;1.67;;;;;;;23.60;34.76;100438.66;1888325;75;28212;-71
2022/12/18 09:58:33;;;;;;;1.80;1.70;;;;;;;23.54;34.21;100429.43;1882759;75;28219;-68
2022/12/18 10:01:23;;;;;;;1.62;1.52;;;;;;;23.47;34.11;100439.59;1897117;75;28114;-67
2022/12/18 10:04:12;;;;;;;1.60;1.50;;;;;;;23.51;34.15;100442.20;1887650;75;28230;-66
2022/12/18 10:07:04;;;;;;;1.35;1.30;;;;;;;23.45;34.24;100449.09;1868200;75;28106;-67
2022/12/18 10:10:01;;;;;;;1.70;1.60;;;;;;;23.41;34.18;100441.81;1881677;75;28186;-67
2022/12/18 10:13:16;;;;;;;1.60;1.42;;;;;;;23.38;34.20;100442.27;1884876;75;28299;-67
2022/12/18 10:16:20;;;;;;;1.70;1.60;;;;;;;23.34;34.37;100443.70;1888031;75;28356;-68
2022/12/18 10:19:17;;;;;;;1.45;1.40;;;;;;;23.32;34.48;100448.04;1866364;75;28194;-66
2022/12/18 10:22:26;;;;;;;2.35;1.60;;;;;;;23.34;34.50;100441.84;1883890;75;28136;-67
2022/12/18 10:25:24;;;;;;;1.70;1.60;;;;;;;23.33;34.65;100436.55;1871618;75;28250;-68
2022/12/18 10:28:19;;;;;;;1.70;1.60;;;;;;;23.30;34.65;100435.08;1880441;75;28203;-69
2022/12/18 10:31:10;;;;;;;1.70;1.40;;;;;;;23.28;34.77;100433.09;1864355;75;35245;-62
2022/12/18 10:33:58;;;;;;;1.50;1.40;;;;;;;23.33;34.91;100426.95;1868739;75;28396;-69
2022/12/18 10:36:48;;;;;;;1.70;1.60;;;;;;;23.34;34.97;100428.62;1887886;75;28330;-69
2022/12/18 10:39:44;;;;;;;1.72;1.62;;;;;;;23.35;35.03;100417.48;1893296;75;32012;-70
2022/12/18 10:42:41;;;;;;;1.60;1.50;;;;;;;23.37;35.08;100425.48;1868840;75;28568;-70
2022/12/18 10:45:34;;;;;;;1.55;1.45;;;;;;;23.41;34.95;100417.69;1874171;76;28140;-71
2022/12/18 10:48:27;;;;;;;1.60;1.50;;;;;;;23.44;34.85;100411.74;1813862;78;28266;-71
2022/12/18 10:51:31;;;;;;;1.60;1.30;;;;;;;23.43;34.84;100412.82;1873664;74;28579;-71
2022/12/18 10:54:28;;;;;;;1.47;1.47;;;;;;;23.45;34.86;100410.70;1871921;75;28362;-70
2022/12/18 10:57:19;;;;;;;1.30;1.30;;;;;;;23.42;34.79;100405.12;1891755;75;28232;-70
2022/12/18 11:00:29;;;;;;;2.00;1.47;;;;;;;23.45;34.80;100398.36;1884904;75;28142;-70
2022/12/18 11:03:32;;;;;;;1.55;1.45;;;;;;;23.46;34.75;100397.28;1886241;75;28196;-71
2022/12/18 11:06:26;;;;;;;1.50;1.40;;;;;;;23.43;34.77;100399.11;1893770;74;28148;-70
2022/12/18 11:09:23;;;;;;;1.27;1.27;;;;;;;23.41;34.80;100395.75;1894596;74;28217;-70
2022/12/18 11:12:20;;;;;;;1.62;1.52;;;;;;;23.47;34.71;100398.45;1891878;75;28144;-69
2022/12/18 11:15:17;;;;;;;1.62;1.52;;;;;;;23.45;34.67;100392.34;1869010;75;28160;-70
2022/12/18 11:18:08;;;;;;;2.00;1.30;;;;;;;23.46;34.70;100390.42;1883304;75;28177;-69
2022/12/18 11:21:12;;;;;;;1.42;1.32;;;;;;;23.44;34.63;100385.69;1875407;75;28286;-69
2022/12/18 11:24:07;;;;;;;1.57;1.52;;;;;;;23.44;34.65;100373.35;1879993;75;28135;-71
2022/12/18 11:26:58;;;;;;;1.50;1.40;;;;;;;23.45;34.65;100368.20;1879859;75;28091;-70
2022/12/18 11:29:51;;;;;;;1.47;1.37;;;;;;;23.41;34.65;100363.66;1901630;75;28123;-71
2022/12/18 11:32:43;;;;;;;1.62;1.52;;;;;;;23.44;34.63;100355.53;1901513;75;28185;-70
2022/12/18 11:35:44;;;;;;;1.70;1.40;;;;;;;23.47;34.55;100352.36;1868692;76;28314;-72
2022/12/18 11:38:38;;;;;;;1.30;1.30;;;;;;;23.42;34.65;100342.05;1878441;75;28110;-70
2022/12/18 11:44:58;;;;;;;1.70;1.60;;;;;;;23.43;34.58;100341.00;1895251;75;28138;-70
2022/12/18 11:47:52;;;;;;;1.50;1.40;;;;;;;23.41;34.64;100334.88;1890784;75;28207;-69
2022/12/18 11:50:53;;;;;;;1.60;1.50;;;;;;;23.36;34.63;100331.42;1888593;75;28101;-70
2022/12/18 11:53:41;;;;;;;1.60;1.50;;;;;;;23.41;34.61;100332.13;1869012;76;28187;-68
2022/12/18 11:56:39;;;;;;;1.77;1.50;;;;;;;23.40;34.60;100327.72;1891163;75;28187;-69
2022/12/18 11:59:30;;;;;;;1.62;1.60;;;;;;;23.40;34.52;100327.72;1897173;75;28178;-70
2022/12/18 12:02:48;;;;;;;1.90;1.70;;;;;;;23.41;34.55;100328.58;1900217;75;28106;-71
2022/12/18 12:05:46;;;;;;;1.50;1.40;;;;;;;23.41;34.50;100320.34;1894212;75;38428;-69
2022/12/18 12:08:55;;;;;;;1.50;1.40;;;;;;;23.34;34.57;100313.47;1901388;75;28190;-70
2022/12/18 12:12:08;;;;;;;1.42;1.42;;;;;;;23.38;34.56;100308.73;1868795;76;28231;-69
2022/12/18 12:15:01;;;;;;;1.50;1.40;;;;;;;23.38;34.55;100310.66;1888627;75;28142;-70
2022/12/18 12:18:01;;;;;;;1.45;1.35;;;;;;;23.34;34.58;100295.16;1884046;75;28155;-70
2022/12/18 12:21:20;;;;;;;1.80;1.50;;;;;;;23.33;34.57;100296.21;1875286;75;32166;-70
2022/12/18 12:24:28;;;;;;;1.40;1.30;;;;;;;23.36;34.55;100295.78;1888092;75;32200;-70
2022/12/18 12:27:19;;;;;;;1.62;1.52;;;;;;;23.34;34.57;100291.54;1878878;75;28116;-70
2022/12/18 12:30:28;;;;;;;1.57;1.47;;;;;;;23.32;34.54;100287.66;1901435;75;28147;-69
2022/12/18 12:33:33;;;;;;;1.50;1.40;;;;;;;23.33;34.55;100286.61;1875025;75;28197;-70
2022/12/18 12:36:25;;;;;;;1.50;1.40;;;;;;;23.33;34.55;100283.88;1890853;75;28160;-70
2022/12/18 12:39:16;;;;;;;1.40;1.30;;;;;;;23.32;34.52;100275.32;1887845;75;28101;-70
2022/12/18 12:45:20;;;;;;;1.50;1.40;;;;;;;23.36;34.44;100271.66;1882420;75;28330;-70
2022/12/18 12:48:39;;;;;;;1.55;1.55;;;;;;;23.35;34.48;100279.56;1880217;75;28155;-71
2022/12/18 12:51:31;;;;;;;1.40;1.40;;;;;;;23.34;34.49;100271.86;1878525;75;28132;-71
2022/12/18 12:54:23;;;;;;;1.30;1.30;;;;;;;23.31;34.49;100269.52;1869128;76;28206;-70
2022/12/18 12:57:18;;;;;;;1.50;1.40;;;;;;;23.29;34.49;100264.79;1890297;75;28122;-70
2022/12/18 13:00:19;;;;;;;1.40;1.40;;;;;;;23.34;34.45;100267.75;1901412;75;28146;-69
2022/12/18 13:03:30;;;;;;;1.80;1.60;;;;;;;23.30;34.46;100267.85;1882303;75;28173;-70
2022/12/18 13:06:37;;;;;;;1.60;1.50;;;;;;;23.31;34.42;100272.81;1869038;76;28223;-70
2022/12/18 13:09:25;;;;;;;1.20;1.20;;;;;;;23.32;34.45;100261.61;1879222;75;28135;-70
2022/12/18 13:15:26;;;;;;;1.40;1.30;;;;;;;23.32;34.44;100253.39;1876871;75;28172;-69
2022/12/18 13:18:20;;;;;;;1.30;1.30;;;;;;;23.29;34.42;100242.86;1871126;75;28158;-70
2022/12/18 13:21:18;;;;;;;1.92;1.30;;;;;;;23.31;34.41;100254.44;1884401;75;28539;-70
2022/12/18 13:24:20;;;;;;;1.50;1.40;;;;;;;23.32;34.37;100256.13;1856660;77;28144;-71
2022/12/18 13:27:47;;;;;;;1.50;1.40;;;;;;;23.29;34.39;100246.16;1888994;75;28174;-70
2022/12/18 13:30:38;;;;;;;1.40;1.30;;;;;;;23.21;34.46;100233.55;1868076;75;38425;-70
2022/12/18 13:33:39;;;;;;;1.20;1.20;;;;;;;23.18;34.53;100235.87;1892554;75;28221;-69